logo
Search for airport 
image banner adimage banner adimage banner ad
image banner ad

CEJ9 - Watson Lake

Located in , Canada

ICAO - CEJ9, IATA -

Data provided by Airmate  

General information

Coordinates: N60°7'0" W128°46'60"
Elevation is 2232 feet MSL.
Magnetic variation is 21.6533° East
View others Airports in Yukon Territory

Operational data

Special qualification required
Current time UTC:
Current local time:
Weather at : CYQH - Watson Lake ( 2 km )
METAR: CYQH 241700Z 32003KT 5SM BR SCT004 OVC019 04/04 A2977 RMK ST4SC4 SLP108
TAF: TAF CYQH 241144Z 2412/2424 VRB03KT P6SM SCT020 OVC040 TEMPO 2412/2417 5SM -SHRA BR BKN020 FM241700 VRB03KT P6SM SCT020 TEMPO 2417/2420 BKN020 FM242000 VRB03KT P6SM SCT040 RMK NXT FCST BY 241800Z
View NOTAMs / SUP AIP / TFR affecting this airport [VIEW]
Communications frequencies: [VIEW]

Runways:

RWY identifierQFULength (ft)Width (ft)SurfaceLDA (ft)
W00WATER

Airport contact information

Address: Canada

Satellite view of CEJ9